createdAt,value
2022-11-06T00:00:40.962Z,10.50
2022-11-06T00:01:44.196Z,16.58
2022-11-06T00:02:48.005Z,9.70
2022-11-06T00:03:54.960Z,18.55
2022-11-06T00:05:21.038Z,21.27
2022-11-06T00:06:42.695Z,18.67
2022-11-06T00:07:48.116Z,17.80
2022-11-06T00:08:51.224Z,18.83
2022-11-06T00:09:54.301Z,15.00
2022-11-06T00:10:57.626Z,16.33
2022-11-06T00:12:00.842Z,17.27
2022-11-06T00:13:04.061Z,16.08
2022-11-06T00:14:07.452Z,15.00
2022-11-06T00:15:11.352Z,19.00
2022-11-06T00:16:15.015Z,17.13
2022-11-06T00:17:18.072Z,17.42
2022-11-06T00:18:21.295Z,17.55
2022-11-06T00:19:24.614Z,20.02
2022-11-06T00:20:27.818Z,21.45
2022-11-06T00:21:32.106Z,14.73
2022-11-06T00:22:38.585Z,18.02
2022-11-06T00:23:42.660Z,10.73
2022-11-06T00:24:45.957Z,17.77
2022-11-06T00:25:53.256Z,15.98
2022-11-06T00:26:56.432Z,16.38
2022-11-06T00:27:59.910Z,14.85
2022-11-06T00:29:05.067Z,13.88
2022-11-06T00:30:11.433Z,17.60
2022-11-06T00:31:20.855Z,11.63
2022-11-06T00:32:23.929Z,14.70
2022-11-06T00:33:27.159Z,16.45
2022-11-06T00:34:30.294Z,14.23
2022-11-06T00:35:33.555Z,17.08
2022-11-06T00:36:36.701Z,14.55
2022-11-06T00:37:40.073Z,20.10
2022-11-06T00:38:43.202Z,18.98
2022-11-06T00:39:46.360Z,13.45
2022-11-06T00:40:49.681Z,16.67
2022-11-06T00:41:52.937Z,13.55
2022-11-06T00:42:57.889Z,16.10
2022-11-06T00:44:02.884Z,13.98
2022-11-06T00:45:06.949Z,16.20
2022-11-06T00:46:14.315Z,13.95
2022-11-06T00:47:17.487Z,17.02
2022-11-06T00:48:20.570Z,14.35
2022-11-06T00:49:23.810Z,16.88
2022-11-06T00:50:27.354Z,13.77
2022-11-06T00:51:36.379Z,12.50
2022-11-06T00:52:39.678Z,18.20
2022-11-06T00:53:43.885Z,19.98
2022-11-06T00:54:47.112Z,14.40
2022-11-06T00:55:50.363Z,15.60
2022-11-06T00:56:53.436Z,14.82
2022-11-06T00:57:57.935Z,16.00
2022-11-06T00:59:04.453Z,16.17
2022-11-06T01:00:08.446Z,18.70
2022-11-06T01:01:30.634Z,12.98
2022-11-06T01:02:33.870Z,14.90
2022-11-06T01:03:39.378Z,19.70
2022-11-06T01:04:42.574Z,13.77
2022-11-06T01:05:45.571Z,23.10
2022-11-06T01:06:53.168Z,13.40
2022-11-06T01:07:56.254Z,11.85
2022-11-06T01:08:59.437Z,15.85
2022-11-06T01:10:02.819Z,20.40
2022-11-06T01:11:18.780Z,13.15
2022-11-06T01:12:21.878Z,12.73
2022-11-06T01:13:24.893Z,15.30
2022-11-06T01:14:28.351Z,11.02
2022-11-06T01:15:31.447Z,17.08
2022-11-06T01:16:35.266Z,11.90
2022-11-06T01:17:38.286Z,19.85
2022-11-06T01:18:43.581Z,16.60
2022-11-06T01:19:47.012Z,19.92
2022-11-06T01:20:50.211Z,18.65
2022-11-06T01:21:54.640Z,15.75
2022-11-06T01:22:57.681Z,18.55
2022-11-06T01:24:26.426Z,12.77
2022-11-06T01:25:29.459Z,18.33
2022-11-06T01:26:38.598Z,18.42
2022-11-06T01:27:45.898Z,16.02
2022-11-06T01:28:49.336Z,17.13
2022-11-06T01:29:52.389Z,20.23
2022-11-06T01:30:55.758Z,15.02
2022-11-06T01:31:58.780Z,19.48
2022-11-06T01:33:01.830Z,17.98
2022-11-06T01:34:05.324Z,17.17
2022-11-06T01:35:08.690Z,14.98
2022-11-06T01:36:14.967Z,17.50
2022-11-06T01:37:18.160Z,12.40
2022-11-06T01:38:22.329Z,16.70
2022-11-06T01:39:25.456Z,18.00
2022-11-06T01:40:28.634Z,23.23
2022-11-06T01:41:40.000Z,16.25
2022-11-06T01:42:43.138Z,16.33
2022-11-06T01:43:55.574Z,15.93
2022-11-06T01:45:20.140Z,16.95
2022-11-06T01:46:32.325Z,11.45
2022-11-06T01:47:35.393Z,12.80
2022-11-06T01:48:42.764Z,15.15
2022-11-06T01:49:46.689Z,15.98
2022-11-06T01:50:55.774Z,13.10
2022-11-06T01:52:05.087Z,11.35
2022-11-06T01:53:08.722Z,16.25
2022-11-06T01:54:12.807Z,18.55
2022-11-06T01:55:32.461Z,18.17
2022-11-06T01:56:37.923Z,15.00
2022-11-06T01:57:41.979Z,11.48
2022-11-06T01:58:46.796Z,14.30
2022-11-06T01:59:53.190Z,18.58
2022-11-06T02:00:56.386Z,17.25
2022-11-06T02:01:59.775Z,15.18
2022-11-06T02:03:03.542Z,16.05
2022-11-06T02:04:26.567Z,18.08
2022-11-06T02:05:30.087Z,14.75
2022-11-06T02:06:33.462Z,14.75
2022-11-06T02:07:37.505Z,15.88
2022-11-06T02:08:40.606Z,17.42
2022-11-06T02:09:44.099Z,11.00
2022-11-06T02:10:47.811Z,17.83
2022-11-06T02:12:14.250Z,11.73
2022-11-06T02:13:50.100Z,11.20
2022-11-06T02:15:17.305Z,20.40
2022-11-06T02:16:57.680Z,18.38
2022-11-06T02:18:50.966Z,17.40
2022-11-06T02:20:07.231Z,21.33
2022-11-06T02:21:51.642Z,24.33
2022-11-06T02:23:26.070Z,13.75
2022-11-06T02:25:08.984Z,15.60
2022-11-06T02:26:32.870Z,18.00
2022-11-06T02:27:36.551Z,17.88
2022-11-06T02:29:07.397Z,18.80
2022-11-06T02:30:13.994Z,22.63
2022-11-06T02:31:26.439Z,24.05
2022-11-06T02:32:58.820Z,15.50
2022-11-06T02:34:14.492Z,25.50
2022-11-06T02:35:28.345Z,17.67
2022-11-06T02:36:37.215Z,18.35
2022-11-06T02:37:44.757Z,15.55
2022-11-06T02:38:56.097Z,13.50
2022-11-06T02:40:05.084Z,13.43
2022-11-06T02:41:17.820Z,14.35
2022-11-06T02:42:22.249Z,10.45
2022-11-06T02:43:47.852Z,16.08
2022-11-06T02:44:54.623Z,11.82
2022-11-06T02:46:22.493Z,12.10
2022-11-06T02:47:31.990Z,15.13
2022-11-06T02:48:46.613Z,15.10
2022-11-06T02:50:06.989Z,13.75
2022-11-06T02:51:14.116Z,14.60
2022-11-06T02:52:40.635Z,10.15
2022-11-06T02:53:46.011Z,13.35
2022-11-06T02:55:00.576Z,14.45
2022-11-06T02:56:11.311Z,15.32
2022-11-06T02:58:32.323Z,11.25
2022-11-06T02:59:51.852Z,13.80
2022-11-06T03:01:21.386Z,15.93
2022-11-06T03:02:51.708Z,11.60
2022-11-06T03:04:02.780Z,15.80
2022-11-06T03:05:35.599Z,11.93
2022-11-06T03:06:46.956Z,14.65
2022-11-06T03:08:07.316Z,11.50
2022-11-06T03:09:18.328Z,11.50
2022-11-06T03:10:26.076Z,18.92
2022-11-06T03:11:35.843Z,10.45
2022-11-06T03:13:32.342Z,19.02
2022-11-06T03:15:06.531Z,13.05
2022-11-06T03:16:40.925Z,12.20
2022-11-06T03:18:09.133Z,17.48
2022-11-06T03:19:42.802Z,10.95
2022-11-06T03:21:04.205Z,13.57
2022-11-06T03:22:27.318Z,11.68
2022-11-06T03:23:50.412Z,13.65
2022-11-06T03:25:16.178Z,12.20
2022-11-06T03:26:33.756Z,13.57
2022-11-06T03:28:04.540Z,12.20
2022-11-06T03:29:15.192Z,16.05
2022-11-06T03:31:34.300Z,13.13
2022-11-06T03:32:58.639Z,16.92
2022-11-06T03:34:12.420Z,21.45
2022-11-06T03:35:40.433Z,13.70
2022-11-06T03:36:49.382Z,14.45
2022-11-06T03:38:01.933Z,15.73
2022-11-06T03:39:15.609Z,14.38
2022-11-06T03:40:22.175Z,14.57
2022-11-06T03:41:45.359Z,12.35
2022-11-06T03:42:49.363Z,17.02
2022-11-06T03:43:56.313Z,19.58
2022-11-06T03:45:11.176Z,15.38
2022-11-06T03:46:22.125Z,12.15
2022-11-06T03:47:43.053Z,11.90
2022-11-06T03:50:20.273Z,13.65
2022-11-06T03:51:38.380Z,15.00
2022-11-06T03:52:53.426Z,17.85
2022-11-06T03:54:03.328Z,15.60
2022-11-06T03:55:19.929Z,17.73
2022-11-06T03:56:57.049Z,16.58
2022-11-06T03:58:13.323Z,11.35
2022-11-06T03:59:22.533Z,10.27
2022-11-06T04:00:25.729Z,18.75
2022-11-06T04:01:43.171Z,11.70
2022-11-06T04:03:05.448Z,11.10
2022-11-06T04:04:38.741Z,17.25
2022-11-06T04:05:59.304Z,15.35
2022-11-06T04:07:16.618Z,14.82
2022-11-06T04:08:43.854Z,17.67
2022-11-06T04:10:13.268Z,11.63
2022-11-06T04:11:39.637Z,13.27
2022-11-06T04:13:04.263Z,13.82
2022-11-06T04:14:09.274Z,20.33
2022-11-06T04:15:19.663Z,9.48
2022-11-06T04:16:24.293Z,11.95
2022-11-06T04:17:30.773Z,13.35
2022-11-06T04:18:33.889Z,16.67
2022-11-06T04:19:37.484Z,12.00
2022-11-06T04:21:14.144Z,12.50
2022-11-06T04:22:41.898Z,14.85
2022-11-06T04:24:28.042Z,14.25
2022-11-06T04:26:37.575Z,13.75
2022-11-06T04:28:00.124Z,13.93
2022-11-06T04:29:37.572Z,13.30
2022-11-06T04:31:17.033Z,16.33
2022-11-06T04:33:18.871Z,10.23
2022-11-06T04:35:12.361Z,14.68
2022-11-06T04:36:42.440Z,13.07
2022-11-06T04:38:35.835Z,15.52
2022-11-06T04:40:10.324Z,12.85
2022-11-06T04:41:42.171Z,14.35
2022-11-06T04:43:01.323Z,21.30
2022-11-06T04:44:50.772Z,11.65
2022-11-06T04:45:58.427Z,14.10
2022-11-06T04:47:09.264Z,16.75
2022-11-06T04:48:13.549Z,12.30
2022-11-06T04:49:18.500Z,13.80
2022-11-06T04:50:25.427Z,11.27
2022-11-06T04:51:33.990Z,11.93
2022-11-06T04:52:39.041Z,10.40
2022-11-06T04:53:43.565Z,15.27
2022-11-06T04:54:48.387Z,13.18
2022-11-06T04:56:10.594Z,14.68
2022-11-06T04:57:13.967Z,10.93
2022-11-06T04:58:17.445Z,9.88
2022-11-06T04:59:20.559Z,13.23
2022-11-06T05:00:23.957Z,12.32
2022-11-06T05:01:27.523Z,12.57
2022-11-06T05:02:30.786Z,12.25
2022-11-06T05:03:33.971Z,13.75
2022-11-06T05:04:37.074Z,14.20
2022-11-06T05:05:40.374Z,10.93
2022-11-06T05:06:43.575Z,10.00
2022-11-06T05:07:46.648Z,8.02
2022-11-06T05:08:49.731Z,12.35
2022-11-06T05:09:53.050Z,5.65
2022-11-06T05:10:56.197Z,9.85
2022-11-06T05:11:59.273Z,11.50
2022-11-06T05:13:02.442Z,8.77
2022-11-06T05:14:05.745Z,10.57
2022-11-06T05:15:09.310Z,15.45
2022-11-06T05:16:12.702Z,8.40
2022-11-06T05:17:16.348Z,8.80
2022-11-06T05:18:19.493Z,10.13
2022-11-06T05:19:22.644Z,9.27
2022-11-06T05:20:26.227Z,9.55
2022-11-06T05:21:50.068Z,13.23
2022-11-06T05:23:00.636Z,11.02
2022-11-06T05:25:07.616Z,8.80
2022-11-06T05:26:10.740Z,8.57
2022-11-06T05:27:13.838Z,9.65
2022-11-06T05:28:16.909Z,10.13
2022-11-06T05:29:19.972Z,10.18
2022-11-06T05:30:24.462Z,7.80
2022-11-06T05:31:27.961Z,10.20
2022-11-06T05:32:31.336Z,8.35
2022-11-06T05:33:36.057Z,8.20
2022-11-06T05:34:39.101Z,8.23
2022-11-06T05:35:42.266Z,8.95
2022-11-06T05:36:45.418Z,7.35
2022-11-06T05:37:48.732Z,9.65
2022-11-06T05:38:51.975Z,8.70
2022-11-06T05:39:55.072Z,9.48
2022-11-06T05:40:58.688Z,7.78
2022-11-06T05:42:01.838Z,6.93
2022-11-06T05:43:05.013Z,6.82
2022-11-06T05:44:08.414Z,6.78
2022-11-06T05:45:12.583Z,9.18
2022-11-06T05:46:42.902Z,6.32
2022-11-06T05:47:42.079Z,7.28
2022-11-06T05:48:45.269Z,9.18
2022-11-06T05:49:48.392Z,8.63
2022-11-06T05:50:51.483Z,6.75
2022-11-06T05:51:54.609Z,10.57
2022-11-06T05:52:59.741Z,8.80
2022-11-06T05:54:02.913Z,10.07
2022-11-06T05:55:11.648Z,11.45
2022-11-06T05:56:18.160Z,8.25
2022-11-06T05:57:21.204Z,12.30
2022-11-06T05:58:24.879Z,7.90
2022-11-06T05:59:28.367Z,8.48
2022-11-06T06:00:31.517Z,10.65
2022-11-06T06:01:35.066Z,9.93
2022-11-06T06:02:38.950Z,7.95
2022-11-06T06:03:42.217Z,9.52
2022-11-06T06:04:45.440Z,9.55
2022-11-06T06:05:48.959Z,8.00
2022-11-06T06:06:52.766Z,8.93
2022-11-06T06:07:55.835Z,6.30
2022-11-06T06:08:59.191Z,11.32
2022-11-06T06:10:02.812Z,8.60
2022-11-06T06:11:07.737Z,8.48
2022-11-06T06:12:13.671Z,8.35
2022-11-06T06:13:17.592Z,8.65
2022-11-06T06:14:21.495Z,6.75
2022-11-06T06:15:24.656Z,8.80
2022-11-06T06:16:28.268Z,7.63
2022-11-06T06:17:31.506Z,6.45
2022-11-06T06:18:34.639Z,11.52
2022-11-06T06:19:37.762Z,6.70
2022-11-06T06:20:43.547Z,7.93
2022-11-06T06:21:47.108Z,8.43
2022-11-06T06:22:57.294Z,7.57
2022-11-06T06:24:01.233Z,6.57
2022-11-06T06:25:04.905Z,7.95
2022-11-06T06:26:09.996Z,7.80
2022-11-06T06:27:13.404Z,6.32
2022-11-06T06:28:16.838Z,6.45
2022-11-06T06:29:21.766Z,6.75
2022-11-06T06:30:25.522Z,6.43
2022-11-06T06:31:29.083Z,6.10
2022-11-06T06:32:32.174Z,7.05
2022-11-06T06:33:35.538Z,6.53
2022-11-06T06:34:38.626Z,7.53
2022-11-06T06:35:41.893Z,4.97
2022-11-06T06:36:45.182Z,7.47
2022-11-06T06:37:54.857Z,5.68
2022-11-06T06:38:58.103Z,6.23
2022-11-06T06:40:01.275Z,8.18
2022-11-06T06:41:07.300Z,7.72
2022-11-06T06:42:10.547Z,6.40
2022-11-06T06:43:14.142Z,7.55
2022-11-06T06:44:19.420Z,8.05
2022-11-06T06:45:22.937Z,6.28
2022-11-06T06:46:26.266Z,8.57
2022-11-06T06:47:29.340Z,6.65
2022-11-06T06:48:33.545Z,7.15
2022-11-06T06:49:36.745Z,5.40
2022-11-06T06:50:40.007Z,5.97
2022-11-06T06:51:43.216Z,8.80
2022-11-06T06:52:47.447Z,8.13
2022-11-06T06:53:50.903Z,6.82
2022-11-06T06:54:54.115Z,6.57
2022-11-06T06:56:02.023Z,5.72
2022-11-06T06:57:05.536Z,4.85
2022-11-06T06:58:16.582Z,6.90
2022-11-06T06:59:21.014Z,6.30
2022-11-06T07:00:24.236Z,5.30
2022-11-06T07:01:27.572Z,6.30
2022-11-06T07:02:30.930Z,6.32
2022-11-06T07:03:34.071Z,8.68
2022-11-06T07:04:37.203Z,9.52
2022-11-06T07:05:40.734Z,6.43
2022-11-06T07:06:44.152Z,5.68
2022-11-06T07:07:47.729Z,7.90
2022-11-06T07:08:55.863Z,5.25
2022-11-06T07:09:59.248Z,5.85
2022-11-06T07:11:07.827Z,7.85
2022-11-06T07:12:11.056Z,7.22
2022-11-06T07:13:14.362Z,5.60
2022-11-06T07:14:17.787Z,6.40
2022-11-06T07:15:20.790Z,7.03
2022-11-06T07:16:25.524Z,5.80
2022-11-06T07:17:28.753Z,6.32
2022-11-06T07:18:31.834Z,7.88
2022-11-06T07:19:34.942Z,5.30
2022-11-06T07:20:39.790Z,7.90
2022-11-06T07:21:43.018Z,6.03
2022-11-06T07:22:46.251Z,6.88
2022-11-06T07:23:49.409Z,5.90
2022-11-06T07:24:52.579Z,8.15
2022-11-06T07:25:55.918Z,6.78
2022-11-06T07:26:59.078Z,6.95
2022-11-06T07:28:04.219Z,7.20
2022-11-06T07:29:08.707Z,8.15
2022-11-06T07:30:12.477Z,8.40
2022-11-06T07:31:15.841Z,6.85
2022-11-06T07:32:18.924Z,7.63
2022-11-06T07:33:22.056Z,5.70
2022-11-06T07:34:25.225Z,6.28
2022-11-06T07:35:29.214Z,10.23
2022-11-06T07:36:35.229Z,10.45
2022-11-06T07:37:38.401Z,8.23
2022-11-06T07:38:43.848Z,9.05
2022-11-06T07:39:47.001Z,6.40
2022-11-06T07:40:50.173Z,6.50
2022-11-06T07:41:53.352Z,7.25
2022-11-06T07:42:56.399Z,6.07
2022-11-06T07:44:00.729Z,9.43
2022-11-06T07:45:04.372Z,7.50
2022-11-06T07:46:10.905Z,9.25
2022-11-06T07:47:14.022Z,9.93
2022-11-06T07:48:17.474Z,9.27
2022-11-06T07:49:20.709Z,8.10
2022-11-06T07:50:24.452Z,7.93
2022-11-06T07:51:27.580Z,8.35
2022-11-06T07:52:31.038Z,10.85
2022-11-06T07:53:35.252Z,8.63
2022-11-06T07:54:38.487Z,8.80
2022-11-06T07:55:55.243Z,9.23
2022-11-06T07:56:58.265Z,8.55
2022-11-06T07:58:01.513Z,7.82
2022-11-06T07:59:05.227Z,10.23
2022-11-06T08:00:09.450Z,8.63
2022-11-06T08:01:19.820Z,8.02
2022-11-06T08:02:23.593Z,6.45
2022-11-06T08:03:30.468Z,7.50
2022-11-06T08:04:33.723Z,8.73
2022-11-06T08:05:36.806Z,6.32
2022-11-06T08:06:39.973Z,11.07
2022-11-06T08:07:43.052Z,7.25
2022-11-06T08:08:46.192Z,8.18
2022-11-06T08:09:49.335Z,9.18
2022-11-06T08:10:53.911Z,7.15
2022-11-06T08:11:57.273Z,9.52
2022-11-06T08:13:01.096Z,7.72
2022-11-06T08:14:04.479Z,7.22
2022-11-06T08:15:08.019Z,6.88
2022-11-06T08:16:14.752Z,6.90
2022-11-06T08:17:17.912Z,6.80
2022-11-06T08:18:21.026Z,6.32
2022-11-06T08:19:24.192Z,5.60
2022-11-06T08:20:27.426Z,7.85
2022-11-06T08:21:30.508Z,8.27
2022-11-06T08:22:33.637Z,5.68
2022-11-06T08:23:37.405Z,8.77
2022-11-06T08:24:40.611Z,6.32
2022-11-06T08:25:43.805Z,7.35
2022-11-06T08:26:47.041Z,10.15
2022-11-06T08:27:50.191Z,9.60
2022-11-06T08:28:54.513Z,7.50
2022-11-06T08:29:57.781Z,6.53
2022-11-06T08:31:09.275Z,7.00
2022-11-06T08:32:12.733Z,6.15
2022-11-06T08:33:15.751Z,8.98
2022-11-06T08:34:19.202Z,7.28
2022-11-06T08:35:22.917Z,5.72
2022-11-06T08:36:26.443Z,7.90
2022-11-06T08:37:29.573Z,6.20
2022-11-06T08:38:32.764Z,7.68
2022-11-06T08:39:35.943Z,5.75
2022-11-06T08:40:40.231Z,7.88
2022-11-06T08:41:45.024Z,5.00
2022-11-06T08:42:48.154Z,7.20
2022-11-06T08:43:52.557Z,7.90
2022-11-06T08:44:56.009Z,6.50
2022-11-06T08:46:00.218Z,7.53
2022-11-06T08:47:04.068Z,9.35
2022-11-06T08:48:08.418Z,7.20
2022-11-06T08:49:11.601Z,5.43
2022-11-06T08:50:15.595Z,6.82
2022-11-06T08:51:19.609Z,9.00
2022-11-06T08:52:23.206Z,7.55
2022-11-06T08:53:26.339Z,8.27
2022-11-06T08:54:29.503Z,9.00
2022-11-06T08:55:34.924Z,8.15
2022-11-06T08:56:38.172Z,10.32
2022-11-06T08:57:41.294Z,7.05
2022-11-06T08:58:44.798Z,8.05
2022-11-06T08:59:47.904Z,6.03
2022-11-06T09:00:51.414Z,7.03
2022-11-06T09:01:54.716Z,5.85
2022-11-06T09:03:02.721Z,8.85
2022-11-06T09:04:06.164Z,8.45
2022-11-06T09:05:11.264Z,6.80
2022-11-06T09:06:14.466Z,7.10
2022-11-06T09:07:18.201Z,6.82
2022-11-06T09:08:21.474Z,7.38
2022-11-06T09:09:32.006Z,8.32
2022-11-06T09:11:38.774Z,8.18
2022-11-06T09:12:42.175Z,8.27
2022-11-06T09:13:45.266Z,8.30
2022-11-06T09:14:48.433Z,6.57
2022-11-06T09:15:51.448Z,6.78
2022-11-06T09:16:54.711Z,6.88
2022-11-06T09:17:57.906Z,8.88
2022-11-06T09:19:01.128Z,6.68
2022-11-06T09:20:04.856Z,7.70
2022-11-06T09:21:08.992Z,7.60
2022-11-06T09:22:12.669Z,5.57
2022-11-06T09:23:16.327Z,5.43
2022-11-06T09:24:32.248Z,5.93
2022-11-06T09:25:42.905Z,5.70
2022-11-06T09:26:46.500Z,7.78
2022-11-06T09:27:58.478Z,6.30
2022-11-06T09:29:02.297Z,9.63
2022-11-06T09:30:06.305Z,9.27
2022-11-06T09:31:11.225Z,6.10
2022-11-06T09:32:15.109Z,11.57
2022-11-06T09:33:18.917Z,8.55
2022-11-06T09:34:22.730Z,12.07
2022-11-06T09:35:28.593Z,9.50
2022-11-06T09:36:32.402Z,9.02
2022-11-06T09:37:36.326Z,8.90
2022-11-06T09:38:39.595Z,8.70
2022-11-06T09:39:42.859Z,9.00
2022-11-06T09:40:53.991Z,6.75
2022-11-06T09:42:42.938Z,8.07
2022-11-06T09:44:41.887Z,9.02
2022-11-06T09:45:52.307Z,8.77
2022-11-06T09:47:01.063Z,9.02
2022-11-06T09:48:36.125Z,11.55
2022-11-06T09:49:50.779Z,9.02
2022-11-06T09:51:38.318Z,9.80
2022-11-06T09:52:54.779Z,8.93
2022-11-06T09:54:18.040Z,12.68
2022-11-06T09:55:33.453Z,9.85
2022-11-06T09:56:41.386Z,7.97
2022-11-06T09:58:02.954Z,11.18
2022-11-06T10:00:17.857Z,11.82
2022-11-06T10:01:27.839Z,9.02
2022-11-06T10:02:43.506Z,10.57
2022-11-06T10:04:04.037Z,10.25
2022-11-06T10:05:28.521Z,9.98
2022-11-06T10:06:32.872Z,9.65
2022-11-06T10:07:41.838Z,11.60
2022-11-06T10:08:45.082Z,8.45
2022-11-06T10:09:48.225Z,10.98
2022-11-06T10:11:22.348Z,9.75
2022-11-06T10:12:33.884Z,11.93
2022-11-06T10:13:50.668Z,10.02
2022-11-06T10:15:20.498Z,9.30
2022-11-06T10:16:42.092Z,12.82
2022-11-06T10:18:09.377Z,9.85
2022-11-06T10:19:41.478Z,14.38
2022-11-06T10:21:08.277Z,9.48
2022-11-06T10:22:38.484Z,9.23
2022-11-06T10:23:56.152Z,9.85
2022-11-06T10:25:22.128Z,11.75
2022-11-06T10:26:46.900Z,9.43
2022-11-06T10:28:03.914Z,11.95
2022-11-06T10:29:37.058Z,10.52
2022-11-06T10:30:45.375Z,11.35
2022-11-06T10:32:14.045Z,9.55
2022-11-06T10:34:02.351Z,10.43
2022-11-06T10:35:31.439Z,9.77
2022-11-06T10:36:50.285Z,10.55
2022-11-06T10:38:05.584Z,12.63
2022-11-06T10:39:22.829Z,10.48
2022-11-06T10:40:30.587Z,9.73
2022-11-06T10:41:38.165Z,11.70
2022-11-06T10:42:43.618Z,9.30
2022-11-06T10:44:02.793Z,11.30
2022-11-06T10:45:28.468Z,5.78
2022-11-06T10:46:49.915Z,10.07
2022-11-06T10:48:00.878Z,8.43
2022-11-06T10:49:39.633Z,8.60
2022-11-06T10:51:09.390Z,7.63
2022-11-06T10:52:38.911Z,8.85
2022-11-06T10:54:06.712Z,11.77
2022-11-06T10:55:46.178Z,11.30
2022-11-06T10:57:42.796Z,10.00
2022-11-06T10:58:46.732Z,9.57
2022-11-06T10:59:50.495Z,7.80
2022-11-06T11:00:58.676Z,7.63
2022-11-06T11:02:03.728Z,12.07
2022-11-06T11:03:26.552Z,9.55
2022-11-06T11:04:32.747Z,11.45
2022-11-06T11:05:40.832Z,10.85
2022-11-06T11:06:44.300Z,11.55
2022-11-06T11:07:50.424Z,12.85
2022-11-06T11:08:53.751Z,9.82
2022-11-06T11:09:57.490Z,9.15
2022-11-06T11:11:15.570Z,10.88
2022-11-06T11:12:31.305Z,11.40
2022-11-06T11:13:35.091Z,8.30
2022-11-06T11:14:38.122Z,11.55
2022-11-06T11:15:49.142Z,12.15
2022-11-06T11:16:53.701Z,11.57
2022-11-06T11:18:37.610Z,9.18
2022-11-06T11:19:42.723Z,10.23
2022-11-06T11:20:52.084Z,9.75
2022-11-06T11:22:18.239Z,9.35
2022-11-06T11:23:24.992Z,8.05
2022-11-06T11:24:28.731Z,9.00
2022-11-06T11:25:32.104Z,10.88
2022-11-06T11:26:43.023Z,9.27
2022-11-06T11:27:46.582Z,8.48
2022-11-06T11:28:54.662Z,11.93
2022-11-06T11:29:58.404Z,10.82
2022-11-06T11:31:09.813Z,9.65
2022-11-06T11:32:16.948Z,8.77
2022-11-06T11:33:24.440Z,9.90
2022-11-06T11:34:33.700Z,7.75
2022-11-06T11:35:38.594Z,10.55
2022-11-06T11:36:56.038Z,9.27
2022-11-06T11:38:13.721Z,8.65
2022-11-06T11:39:19.349Z,11.98
2022-11-06T11:40:36.259Z,11.73
2022-11-06T11:41:39.920Z,9.65
2022-11-06T11:42:43.124Z,13.68
2022-11-06T11:44:12.158Z,9.63
2022-11-06T11:45:19.316Z,10.65
2022-11-06T11:46:22.535Z,8.07
2022-11-06T11:47:25.669Z,8.85
2022-11-06T11:48:46.943Z,11.30
2022-11-06T11:49:50.412Z,12.35
2022-11-06T11:50:53.617Z,9.60
2022-11-06T11:52:01.403Z,12.73
2022-11-06T11:53:19.076Z,11.95
2022-11-06T11:54:26.983Z,7.90
2022-11-06T11:55:31.121Z,10.48
2022-11-06T11:57:03.647Z,15.77
2022-11-06T11:58:28.672Z,9.13
2022-11-06T12:00:00.478Z,9.27
2022-11-06T12:01:07.596Z,9.25
2022-11-06T12:02:29.942Z,12.95
2022-11-06T12:03:44.189Z,9.75
2022-11-06T12:05:00.580Z,10.32
2022-11-06T12:06:14.458Z,12.75
2022-11-06T12:07:30.591Z,11.43
2022-11-06T12:08:34.073Z,9.70
2022-11-06T12:09:45.013Z,9.30
2022-11-06T12:11:55.228Z,12.98
2022-11-06T12:13:01.458Z,9.63
2022-11-06T12:14:27.423Z,9.68
2022-11-06T12:15:57.536Z,10.38
2022-11-06T12:17:34.065Z,11.00
2022-11-06T12:18:47.836Z,12.15
2022-11-06T12:19:57.690Z,10.75
2022-11-06T12:21:30.006Z,10.80
2022-11-06T12:22:42.000Z,11.50
2022-11-06T12:23:57.476Z,11.23
2022-11-06T12:25:23.541Z,9.38
2022-11-06T12:27:02.754Z,9.45
2022-11-06T12:28:15.440Z,14.77
2022-11-06T12:29:49.239Z,11.70
2022-11-06T12:31:03.136Z,16.83
2022-11-06T12:32:35.823Z,11.65
2022-11-06T12:34:09.907Z,9.30
2022-11-06T12:35:28.856Z,10.40
2022-11-06T12:36:39.420Z,11.68
2022-11-06T12:37:57.339Z,11.40
2022-11-06T12:39:09.992Z,9.32
2022-11-06T12:40:25.415Z,11.75
2022-11-06T12:41:38.004Z,12.82
2022-11-06T12:42:56.281Z,10.07
2022-11-06T12:44:00.125Z,9.82
2022-11-06T12:45:03.724Z,12.05
2022-11-06T12:46:24.792Z,12.63
2022-11-06T12:47:57.698Z,11.57
2022-11-06T12:49:09.181Z,14.25
2022-11-06T12:50:41.149Z,12.35
2022-11-06T12:52:14.663Z,12.70
2022-11-06T12:53:56.095Z,10.77
2022-11-06T12:55:25.503Z,11.23
2022-11-06T12:56:52.557Z,11.63
2022-11-06T12:58:29.741Z,13.50
2022-11-06T13:00:05.568Z,11.88
2022-11-06T13:01:20.953Z,14.55
2022-11-06T13:02:46.013Z,12.10
2022-11-06T13:04:00.597Z,13.05
2022-11-06T13:05:20.767Z,11.88
2022-11-06T13:06:30.694Z,12.48
2022-11-06T13:08:22.783Z,11.30
2022-11-06T13:09:33.098Z,10.57
2022-11-06T13:11:29.685Z,11.57
2022-11-06T13:13:17.567Z,12.18
2022-11-06T13:15:04.355Z,10.38
2022-11-06T13:17:05.898Z,11.98
2022-11-06T13:19:32.144Z,9.27
2022-11-06T13:20:52.427Z,13.68
2022-11-06T13:22:25.869Z,5.65
2022-11-06T13:23:50.442Z,9.85
2022-11-06T13:25:48.979Z,10.70
2022-11-06T13:27:09.532Z,14.48
2022-11-06T13:28:49.801Z,11.95
2022-11-06T13:29:59.468Z,8.95
2022-11-06T13:31:06.416Z,12.25
2022-11-06T13:32:16.900Z,12.90
2022-11-06T13:33:28.516Z,16.25
2022-11-06T13:34:37.982Z,13.32
2022-11-06T13:35:44.730Z,11.95
2022-11-06T13:36:48.767Z,9.10
2022-11-06T13:37:54.554Z,15.23
2022-11-06T13:39:10.045Z,14.02
2022-11-06T13:40:42.974Z,11.23
2022-11-06T13:41:46.001Z,8.90
2022-11-06T13:43:00.547Z,14.07
2022-11-06T13:44:15.957Z,8.88
2022-11-06T13:45:20.647Z,9.63
2022-11-06T13:46:59.143Z,14.15
2022-11-06T13:48:33.216Z,10.23
2022-11-06T13:49:56.022Z,10.57
2022-11-06T13:51:18.050Z,10.50
2022-11-06T13:53:30.929Z,8.73
2022-11-06T13:54:58.609Z,11.23
2022-11-06T13:56:18.946Z,8.93
2022-11-06T13:57:42.986Z,10.30
2022-11-06T13:59:34.223Z,12.32
2022-11-06T14:01:12.086Z,11.95
2022-11-06T14:02:29.936Z,10.07
2022-11-06T14:03:56.512Z,8.50
2022-11-06T14:05:41.773Z,11.40
2022-11-06T14:06:46.629Z,11.15
2022-11-06T14:07:51.678Z,8.93
2022-11-06T14:09:16.134Z,7.70
2022-11-06T14:10:38.829Z,10.25
2022-11-06T14:11:45.255Z,15.75
2022-11-06T14:12:50.030Z,11.18
2022-11-06T14:14:12.066Z,13.57
2022-11-06T14:15:20.600Z,9.13
2022-11-06T14:16:26.091Z,13.98
2022-11-06T14:17:29.288Z,10.60
2022-11-06T14:18:33.986Z,10.27
2022-11-06T14:19:37.647Z,9.35
2022-11-06T14:20:43.327Z,13.88
2022-11-06T14:22:16.528Z,9.38
2022-11-06T14:23:32.171Z,12.52
2022-11-06T14:24:37.118Z,12.07
2022-11-06T14:25:41.433Z,8.55
2022-11-06T14:26:50.046Z,7.65
2022-11-06T14:27:53.098Z,7.85
2022-11-06T14:28:56.437Z,15.20
2022-11-06T14:30:15.289Z,14.57
2022-11-06T14:32:06.836Z,12.75
2022-11-06T14:34:34.820Z,11.35
2022-11-06T14:35:37.719Z,9.65
2022-11-06T14:36:40.801Z,9.80
2022-11-06T14:37:43.713Z,11.63
2022-11-06T14:38:46.782Z,9.00
2022-11-06T14:39:55.986Z,9.13
2022-11-06T14:40:59.703Z,11.45
2022-11-06T14:42:04.164Z,13.63
2022-11-06T14:43:32.030Z,10.23
2022-11-06T14:44:43.680Z,10.88
2022-11-06T14:46:03.752Z,10.73
2022-11-06T14:47:20.356Z,11.75
2022-11-06T14:48:38.482Z,11.10
2022-11-06T14:49:48.771Z,9.85
2022-11-06T14:50:52.036Z,10.52
2022-11-06T14:52:08.506Z,14.30
2022-11-06T14:53:25.938Z,11.40
2022-11-06T14:54:29.540Z,12.75
2022-11-06T14:55:43.819Z,11.77
2022-11-06T14:56:54.188Z,9.60
2022-11-06T14:58:41.140Z,15.15
2022-11-06T14:59:44.559Z,12.05
2022-11-06T15:01:09.808Z,11.85
2022-11-06T15:02:26.903Z,11.55
2022-11-06T15:03:54.769Z,12.00
2022-11-06T15:05:08.276Z,10.90
2022-11-06T15:06:17.293Z,15.10
2022-11-06T15:08:06.618Z,15.32
2022-11-06T15:09:23.940Z,13.07
2022-11-06T15:10:45.104Z,11.60
2022-11-06T15:11:59.860Z,11.70
2022-11-06T15:13:16.963Z,8.88
2022-11-06T15:14:20.180Z,10.00
2022-11-06T15:15:24.947Z,12.68
2022-11-06T15:16:41.454Z,14.25
2022-11-06T15:17:44.975Z,12.88
2022-11-06T15:18:49.953Z,17.17
2022-11-06T15:20:11.521Z,14.65
2022-11-06T15:21:32.856Z,12.63
2022-11-06T15:22:54.354Z,13.10
2022-11-06T15:24:12.214Z,12.27
2022-11-06T15:25:20.925Z,13.75
2022-11-06T15:26:41.786Z,14.82
2022-11-06T15:27:55.271Z,11.40
2022-11-06T15:29:26.370Z,13.73
2022-11-06T15:30:31.471Z,15.00
2022-11-06T15:31:34.771Z,15.27
2022-11-06T15:32:42.591Z,19.25
2022-11-06T15:34:01.346Z,19.13
2022-11-06T15:35:21.728Z,15.00
2022-11-06T15:36:27.171Z,13.98
2022-11-06T15:37:35.824Z,16.48
2022-11-06T15:38:42.296Z,18.98
2022-11-06T15:39:48.524Z,21.05
2022-11-06T15:40:53.839Z,19.42
2022-11-06T15:41:57.799Z,16.55
2022-11-06T15:43:18.487Z,21.90
2022-11-06T15:44:24.423Z,17.58
2022-11-06T15:45:29.701Z,21.08
2022-11-06T15:46:32.747Z,16.08
2022-11-06T15:47:36.153Z,21.42